Etusivu
METAR-TAF:

METAR-TAF

Lentoasemat :

Bückeburg, Saksa

Leveyspiiri: 52-17N, Pituuspiiri: 009-05E, korkeus merenpinnasta: 70 m

Tämänhetkinen sää

Tämä raportti tehtiin 59 minuuttia sitten, kello 17.20 UTC
Tuuli 1 kn lounaasta
Lämpötila 24°C
Kosteus 50%
Ilmanpaine 1018 hPa
Näkyvyys 10 km tai enemmän
Muutamia pilviä 4500 ft:n korkeudessa
Hajonneita pilviä 6000 ft:n korkeudessa

METAR: ETHB 151720Z 23001KT 9999 FEW045 BKN060 24/13 Q1018 BLU BLU

Aika: 20:19 (18:19 UTC)

Sääennuste

Tämä raportti tehtiin 35 minuuttia sitten, kello 17.44 UTC
Ennuste voimassa 15. päivästä klo 17 UTC - 16. päivään klo 02 UTC
Tuuli 5 kn etelästä/lounaasta
Näkyvyys: 1800 m
Muutamia pilviä 4000 ft:n korkeudessa
Hajonneita pilviä 6000 ft:n korkeudessa

TAF: ETHB 151744Z 1517/1602 20005KT 9999 NSW FEW040 BKN060 CANCEL 1800

Säähavainnot ja -ennusteet yli 4000 lentoasemalta (METAR- ja TAF-raportit).

Käytössä olevat sääasemat on merkitty karttaan keltaisilla ja punaisilla pisteillä.

Aseta hiiri pisteen päälle nähdäksesi sääaseman nimen.

Klikkaa sitten nähdäksesi säähavainnot ja -ennusteet.

Kartan vaihtaminen: klikkaa mustalla rastilla varustettuja vihreitä pisteitä, niin voit zoomata sisään; viivalla varustettua vihreää pistettä, niin voit zoomata ulos tai vihreitä nuolia, niin pääset viereisille kartoille.


METAR-TAF: